createdAt,value
2023-04-07T00:03:41.898Z,2.80
2023-04-07T00:08:46.127Z,2.90
2023-04-07T00:13:49.376Z,2.80
2023-04-07T00:18:52.883Z,2.90
2023-04-07T00:23:56.491Z,2.80
2023-04-07T00:29:00.340Z,2.90
2023-04-07T00:34:03.697Z,3.00
2023-04-07T00:39:06.906Z,3.00
2023-04-07T00:44:10.526Z,3.00
2023-04-07T00:49:13.997Z,3.00
2023-04-07T00:54:18.678Z,3.00
2023-04-07T00:59:22.443Z,3.10
2023-04-07T01:04:33.005Z,3.10
2023-04-07T01:09:46.728Z,3.10
2023-04-07T01:14:59.188Z,3.10
2023-04-07T01:20:09.123Z,3.10
2023-04-07T01:25:52.418Z,3.20
2023-04-07T01:30:58.793Z,3.30
2023-04-07T01:36:03.412Z,3.30
2023-04-07T01:41:09.054Z,3.30
2023-04-07T01:46:12.398Z,3.30
2023-04-07T01:51:19.347Z,3.40
2023-04-07T01:56:22.628Z,3.30
2023-04-07T02:01:26.522Z,3.40
2023-04-07T02:06:43.136Z,3.40
2023-04-07T02:11:47.048Z,3.40
2023-04-07T02:16:51.574Z,3.40
2023-04-07T02:21:55.156Z,3.40
2023-04-07T02:26:59.076Z,3.40
2023-04-07T02:32:02.340Z,3.50
2023-04-07T02:37:05.638Z,3.50
2023-04-07T02:42:09.036Z,3.50
2023-04-07T02:47:12.716Z,3.60
2023-04-07T02:52:16.235Z,3.70
2023-04-07T02:57:19.891Z,3.60
2023-04-07T03:02:23.640Z,3.70
2023-04-07T03:07:27.294Z,3.70
2023-04-07T03:12:30.972Z,3.70
2023-04-07T03:17:34.682Z,3.70
2023-04-07T03:22:38.032Z,3.70
2023-04-07T03:27:41.321Z,3.70
2023-04-07T03:32:45.150Z,3.70
2023-04-07T03:37:48.404Z,3.80
2023-04-07T03:42:51.732Z,3.80
2023-04-07T03:47:55.034Z,3.90
2023-04-07T03:52:58.286Z,3.90
2023-04-07T03:58:01.737Z,3.90
2023-04-07T04:03:05.477Z,3.90
2023-04-07T04:08:09.183Z,4.00
2023-04-07T04:13:12.492Z,3.90
2023-04-07T04:18:15.973Z,3.90
2023-04-07T04:23:19.340Z,4.00
2023-04-07T04:28:22.556Z,4.00
2023-04-07T04:33:26.182Z,4.00
2023-04-07T04:38:29.432Z,4.10
2023-04-07T04:43:32.694Z,4.10
2023-04-07T04:48:36.343Z,4.10
2023-04-07T04:53:39.746Z,4.10
2023-04-07T04:58:46.761Z,4.20
2023-04-07T05:03:50.939Z,4.20
2023-04-07T05:08:54.758Z,4.20
2023-04-07T05:13:58.023Z,4.20
2023-04-07T05:19:01.388Z,4.30
2023-04-07T05:24:04.902Z,4.30
2023-04-07T05:29:08.662Z,4.40
2023-04-07T05:34:12.011Z,4.40
2023-04-07T05:39:15.355Z,4.40
2023-04-07T05:44:18.651Z,4.40
2023-04-07T05:49:21.932Z,4.50
2023-04-07T05:54:25.495Z,4.60
2023-04-07T05:59:28.791Z,4.60
2023-04-07T06:04:33.596Z,4.60
2023-04-07T06:09:37.065Z,4.60
2023-04-07T06:14:40.292Z,4.70
2023-04-07T06:19:43.811Z,4.60
2023-04-07T06:24:47.304Z,4.70
2023-04-07T06:29:50.972Z,4.80
2023-04-07T06:34:54.413Z,4.80
2023-04-07T06:39:57.798Z,4.80
2023-04-07T06:45:01.126Z,4.90
2023-04-07T06:50:04.796Z,4.90
2023-04-07T06:55:08.580Z,4.90
2023-04-07T07:00:12.447Z,5.10
2023-04-07T07:05:15.941Z,5.10
2023-04-07T07:10:21.156Z,5.20
2023-04-07T07:15:24.825Z,5.20
2023-04-07T07:20:28.216Z,5.20
2023-04-07T07:25:31.365Z,5.20
2023-04-07T07:30:34.756Z,5.20
2023-04-07T07:35:39.140Z,5.30
2023-04-07T07:40:42.393Z,5.30
2023-04-07T07:45:46.046Z,5.30
2023-04-07T07:50:49.570Z,5.40
2023-04-07T07:55:53.183Z,5.50
2023-04-07T08:00:57.151Z,5.50
2023-04-07T08:06:01.539Z,5.70
2023-04-07T08:11:05.279Z,5.80
2023-04-07T08:16:08.753Z,5.80
2023-04-07T08:21:14.485Z,5.90
2023-04-07T08:26:18.171Z,6.20
2023-04-07T08:31:21.475Z,6.50
2023-04-07T08:36:26.815Z,6.60
2023-04-07T08:41:43.125Z,6.70
2023-04-07T08:46:47.953Z,6.70
2023-04-07T08:51:53.614Z,6.70
2023-04-07T08:56:57.806Z,6.70
2023-04-07T09:02:01.341Z,6.70
2023-04-07T09:07:04.745Z,6.80
2023-04-07T09:12:08.079Z,6.80
2023-04-07T09:17:12.061Z,6.90
2023-04-07T09:22:15.765Z,6.90
2023-04-07T09:27:20.023Z,7.00
2023-04-07T09:32:39.724Z,7.00
2023-04-07T09:37:43.133Z,7.10
2023-04-07T09:42:48.715Z,7.10
2023-04-07T09:47:52.279Z,7.20
2023-04-07T09:52:55.955Z,7.30
2023-04-07T09:57:59.949Z,7.60
2023-04-07T10:03:04.796Z,7.90
2023-04-07T10:08:08.396Z,7.90
2023-04-07T10:13:12.716Z,7.90
2023-04-07T10:18:18.823Z,7.90
2023-04-07T10:23:26.834Z,7.90
2023-04-07T10:28:32.411Z,7.90
2023-04-07T10:33:52.955Z,8.10
2023-04-07T10:39:08.236Z,8.30
2023-04-07T10:44:43.916Z,8.40
2023-04-07T10:50:20.185Z,8.40
2023-04-07T10:55:31.331Z,8.40
2023-04-07T11:00:34.882Z,8.50
2023-04-07T11:05:39.341Z,8.60
2023-04-07T11:10:48.834Z,8.40
2023-04-07T11:15:53.044Z,8.40
2023-04-07T11:20:59.699Z,8.40
2023-04-07T11:26:03.619Z,8.40
2023-04-07T11:31:07.317Z,8.60
2023-04-07T11:36:10.595Z,8.70
2023-04-07T11:41:16.409Z,8.70
2023-04-07T11:46:19.960Z,8.80
2023-04-07T11:51:28.591Z,8.80
2023-04-07T11:56:47.082Z,8.80
2023-04-07T12:01:52.708Z,9.00
2023-04-07T12:07:10.888Z,9.10
2023-04-07T12:12:14.777Z,9.20
2023-04-07T12:17:22.636Z,9.30
2023-04-07T12:22:26.271Z,9.40
2023-04-07T12:27:39.956Z,9.40
2023-04-07T12:32:46.418Z,9.50
2023-04-07T12:37:50.139Z,9.40
2023-04-07T12:42:53.609Z,9.40
2023-04-07T12:47:57.223Z,9.50
2023-04-07T12:53:03.814Z,9.50
2023-04-07T12:58:08.214Z,9.50
2023-04-07T13:03:12.139Z,9.50
2023-04-07T13:08:15.590Z,9.30
2023-04-07T13:13:18.730Z,9.30
2023-04-07T13:18:22.196Z,9.40
2023-04-07T13:23:26.329Z,9.30
2023-04-07T13:28:29.777Z,9.10
2023-04-07T13:33:32.997Z,9.10
2023-04-07T13:38:36.274Z,9.10
2023-04-07T13:43:39.886Z,9.00
2023-04-07T13:48:43.137Z,8.90
2023-04-07T13:53:47.235Z,9.00
2023-04-07T13:58:50.990Z,9.10
2023-04-07T14:03:54.732Z,9.30
2023-04-07T14:08:59.509Z,9.40
2023-04-07T14:14:02.850Z,9.40
2023-04-07T14:19:07.373Z,9.60
2023-04-07T14:24:11.008Z,9.50
2023-04-07T14:29:15.093Z,9.50
2023-04-07T14:34:18.572Z,9.60
2023-04-07T14:39:23.284Z,9.90
2023-04-07T14:44:26.785Z,10.40
2023-04-07T14:49:30.008Z,10.80
2023-04-07T14:54:33.630Z,10.90
2023-04-07T14:59:37.008Z,10.50
2023-04-07T15:04:40.400Z,10.30
2023-04-07T15:09:43.728Z,10.30
2023-04-07T15:14:46.877Z,10.30
2023-04-07T15:19:50.378Z,10.40
2023-04-07T15:24:53.694Z,10.60
2023-04-07T15:29:57.197Z,10.50
2023-04-07T15:35:00.430Z,10.40
2023-04-07T15:40:03.632Z,10.30
2023-04-07T15:45:08.374Z,10.20
2023-04-07T15:50:11.995Z,10.20
2023-04-07T15:55:15.689Z,10.00
2023-04-07T16:00:19.445Z,9.90
2023-04-07T16:05:22.975Z,9.80
2023-04-07T16:10:27.625Z,9.70
2023-04-07T16:15:40.265Z,9.60
2023-04-07T16:20:45.086Z,9.60
2023-04-07T16:25:48.399Z,9.50
2023-04-07T16:30:51.688Z,9.50
2023-04-07T16:35:55.052Z,9.40
2023-04-07T16:41:04.528Z,9.40
2023-04-07T16:46:08.470Z,9.40
2023-04-07T16:51:16.191Z,9.30
2023-04-07T16:56:24.372Z,9.20
2023-04-07T17:01:32.522Z,9.10
2023-04-07T17:06:35.848Z,9.00
2023-04-07T17:11:41.749Z,8.90
2023-04-07T17:16:44.988Z,8.80
2023-04-07T17:21:49.144Z,8.70
2023-04-07T17:26:53.699Z,8.70
2023-04-07T17:31:57.803Z,8.70
2023-04-07T17:37:01.327Z,8.70
2023-04-07T17:42:04.924Z,8.60
2023-04-07T17:47:08.245Z,8.60
2023-04-07T17:52:11.667Z,8.50
2023-04-07T17:57:16.383Z,8.50
2023-04-07T18:02:20.155Z,8.50
2023-04-07T18:07:24.305Z,8.60
2023-04-07T18:12:27.606Z,8.60
2023-04-07T18:17:31.402Z,8.60
2023-04-07T18:22:34.809Z,8.50
2023-04-07T18:27:38.286Z,8.50
2023-04-07T18:32:41.975Z,8.50
2023-04-07T18:37:45.567Z,8.50
2023-04-07T18:42:48.985Z,8.50
2023-04-07T18:47:52.699Z,8.50
2023-04-07T18:52:56.442Z,8.50
2023-04-07T18:57:59.669Z,8.50
2023-04-07T19:03:04.070Z,8.40
2023-04-07T19:08:08.033Z,8.40
2023-04-07T19:13:16.170Z,8.40
2023-04-07T19:18:20.061Z,8.50
2023-04-07T19:23:23.704Z,8.50
2023-04-07T19:28:28.424Z,8.40
2023-04-07T19:33:31.826Z,8.30
2023-04-07T19:38:35.300Z,8.30
2023-04-07T19:43:38.723Z,8.20
2023-04-07T19:48:42.939Z,8.20
2023-04-07T19:53:46.751Z,8.20
2023-04-07T19:58:50.471Z,8.10
2023-04-07T20:03:53.911Z,8.10
2023-04-07T20:08:59.046Z,8.00
2023-04-07T20:14:03.310Z,8.10
2023-04-07T20:19:06.606Z,8.20
2023-04-07T20:24:09.720Z,8.10
2023-04-07T20:29:13.091Z,8.20
2023-04-07T20:34:17.016Z,8.20
2023-04-07T20:39:20.569Z,8.10
2023-04-07T20:44:24.150Z,8.00
2023-04-07T20:49:29.377Z,8.10
2023-04-07T20:54:34.343Z,8.10
2023-04-07T20:59:37.493Z,8.00
2023-04-07T21:04:41.025Z,8.00
2023-04-07T21:09:44.514Z,8.10
2023-04-07T21:14:47.635Z,8.00
2023-04-07T21:19:51.505Z,8.10
2023-04-07T21:24:56.189Z,8.00
2023-04-07T21:30:00.543Z,8.10
2023-04-07T21:35:04.604Z,8.10
2023-04-07T21:40:08.854Z,8.30
2023-04-07T21:45:13.182Z,8.20
2023-04-07T21:50:17.161Z,8.30
2023-04-07T21:55:21.073Z,8.30
2023-04-07T22:00:24.544Z,8.30
2023-04-07T22:05:28.440Z,8.20
2023-04-07T22:10:31.929Z,8.10
2023-04-07T22:15:35.518Z,8.00
2023-04-07T22:20:39.029Z,7.90
2023-04-07T22:25:42.211Z,7.80
2023-04-07T22:30:45.906Z,7.70
2023-04-07T22:35:49.331Z,7.50
2023-04-07T22:40:52.450Z,7.50
2023-04-07T22:45:55.935Z,7.40
2023-04-07T22:50:59.195Z,7.40
2023-04-07T22:56:03.048Z,7.40
2023-04-07T23:01:06.222Z,7.30
2023-04-07T23:06:09.680Z,7.20
2023-04-07T23:11:12.925Z,7.10
2023-04-07T23:16:16.740Z,6.90
2023-04-07T23:21:20.354Z,6.60
2023-04-07T23:26:23.937Z,6.70
2023-04-07T23:31:28.595Z,6.70
2023-04-07T23:36:32.565Z,6.70
2023-04-07T23:41:35.872Z,6.90
2023-04-07T23:46:39.101Z,6.90
2023-04-07T23:51:42.170Z,6.80
2023-04-07T23:56:45.567Z,6.80
